Franksville, WI (53126)

1:26 AM CDT on July 29, 2016 (GMT -0500)
K and U | | Change Station

Elev 720 ft 42.79 °N, 88.02 °W | Updated 7 minutes ago

Overcast
Overcast
67.8 °F
Feels Like 67.8 °F
N
6.7
Wind Variable Wind from NE

Today
High -- | Low -- °F
--% Chance of Precip.
Yesterday
High -- | Low -- °F
Precip. -- in
Pressure 29.97 in
Visibility 10.0 miles
Clouds Scattered Clouds 1200 ft
Mostly Cloudy 1900 ft
Overcast 9500 ft
Dew Point 64 °F
Humidity 87%
Rainfall 0.00 in
Snow Depth Not available.
5:40 AM 8:15 PM
Waning Crescent, 25% visible
SPECI KRAC 290621Z AUTO 01009KT 10SM SCT012 BKN019 OVC095 20/18 A2997 RMK AO2 T02000183
Pressure 29.97 in
Visibility 10.0 miles
Clouds Scattered Clouds 1200 ft
Mostly Cloudy 1900 ft
Overcast 9500 ft
Dew Point 64 °F
Humidity 87%
Rainfall 0.00 in
Snow Depth Not available.
5:40 AM 8:15 PM
Waning Crescent, 25% visible
SPECI KRAC 290621Z AUTO 01009KT 10SM SCT012 BKN019 OVC095 20/18 A2997 RMK AO2 T02000183

10-Day Weather Forecast

Almanac

Astronomy

Jul. 29, 2016 Rise Set
Actual Time
Civil Twilight
Nautical Twilight
Astronomical Twilight
Moon
Length of Visible Light
Length of Day
Tomorrow will be .
, % of the Moon is Illuminated

Today's Extremes

State Highs State Lows

Community

WunderPhotos

Upload Photos

1,928,299 photos uploaded!

WunderBlog® & News

Nearby

Air Quality

  Air Quality AQ Index Pollutant
Not available.

Snow Depth

Station Depth Elevation

Earthquake Activity

City Distance Mag. Time & Date
Minimum magnitude displayed is 2.5.

Coastal Water Temperatures

Place Temperature

Stations

Nearby Weather Stations

Station Location Temp. Windchill Dew Point Humidity Wind Precip. Elev Updated Type
                   

Watches & Warnings

There are currently no watches in effect.